Time;durP1;ratioP1;P1;durP2;ratioP2;P2;SDS_P1;SDS_P2;PMS_P1;PMS_P2;Temp;Humidity;BMP_temperature;BMP_pressure;BME280_temperature;BME280_humidity;BME280_pressure;Samples;Min_cycle;Max_cycle;Signal;HPM_P1;HPM_P2
2022/08/25 00:00:46;;;;;;;10.53;8.30;;;;;;;;;;5050106;28;20084;-61
2022/08/25 00:03:12;;;;;;;9.57;7.47;;;;;;;;;;5050098;28;20458;-61
2022/08/25 00:05:39;;;;;;;11.17;7.27;;;;;;;;;;5050165;28;20149;-61
2022/08/25 00:08:06;;;;;;;8.83;6.93;;;;;;;;;;5050685;28;20083;-61
2022/08/25 00:10:36;;;;;;;10.27;6.07;;;;;;;;;;5050413;28;20037;-61
2022/08/25 00:13:03;;;;;;;10.60;7.20;;;;;;;;;;5049781;28;20504;-62
2022/08/25 00:15:30;;;;;;;8.30;5.97;;;;;;;;;;5050405;28;20132;-61
2022/08/25 00:17:58;;;;;;;7.53;6.00;;;;;;;;;;5049598;28;20040;-61
2022/08/25 00:20:25;;;;;;;9.50;5.77;;;;;;;;;;5050436;28;20141;-61
2022/08/25 00:22:51;;;;;;;9.80;6.13;;;;;;;;;;5049721;28;20033;-61
2022/08/25 00:25:18;;;;;;;8.40;5.40;;;;;;;;;;5049905;28;20037;-61
2022/08/25 00:27:44;;;;;;;8.57;5.93;;;;;;;;;;5050066;28;20124;-62
2022/08/25 00:30:13;;;;;;;9.70;5.70;;;;;;;;;;5050016;28;20045;-62
2022/08/25 00:32:39;;;;;;;9.30;6.77;;;;;;;;;;5049219;28;20052;-61
2022/08/25 00:35:06;;;;;;;9.53;5.10;;;;;;;;;;5050086;28;20538;-61
2022/08/25 00:37:32;;;;;;;15.60;5.33;;;;;;;;;;5049511;28;20498;-61
2022/08/25 00:39:58;;;;;;;6.47;4.33;;;;;;;;;;5049770;28;20049;-61
2022/08/25 00:42:25;;;;;;;12.57;4.97;;;;;;;;;;5049587;28;20139;-61
2022/08/25 00:44:52;;;;;;;8.67;4.40;;;;;;;;;;5048279;28;20566;-61
2022/08/25 00:47:18;;;;;;;9.13;4.23;;;;;;;;;;5048999;28;20116;-61
2022/08/25 00:49:47;;;;;;;7.07;4.53;;;;;;;;;;5049591;28;20068;-61
2022/08/25 00:52:14;;;;;;;7.17;4.27;;;;;;;;;;5049230;28;20483;-61
2022/08/25 00:55:04;;;;;;;7.50;4.33;;;;;;;;;;5049020;28;20049;-62
2022/08/25 00:57:35;;;;;;;8.90;4.70;;;;;;;;;;5048871;28;20628;-61
2022/08/25 01:00:08;;;;;;;7.17;4.13;;;;;;;;;;5048729;28;20052;-61
2022/08/25 01:02:34;;;;;;;8.63;4.20;;;;;;;;;;5049263;28;20052;-61
2022/08/25 01:05:00;;;;;;;7.13;4.20;;;;;;;;;;5048158;28;20045;-62
2022/08/25 01:07:26;;;;;;;11.17;4.67;;;;;;;;;;5047868;28;20207;-61
2022/08/25 01:09:52;;;;;;;10.03;4.63;;;;;;;;;;5049277;28;20044;-62
2022/08/25 01:12:19;;;;;;;13.37;4.70;;;;;;;;;;5048963;28;20133;-61
2022/08/25 01:14:46;;;;;;;5.70;3.53;;;;;;;;;;5049020;28;20056;-62
2022/08/25 01:17:12;;;;;;;6.03;3.97;;;;;;;;;;5048515;28;20094;-61
2022/08/25 01:19:38;;;;;;;8.23;3.60;;;;;;;;;;5048454;28;20086;-62
2022/08/25 01:22:04;;;;;;;9.90;4.37;;;;;;;;;;5048701;28;20064;-61
2022/08/25 01:24:30;;;;;;;6.90;4.20;;;;;;;;;;5048507;28;20136;-61
2022/08/25 01:26:57;;;;;;;7.90;3.83;;;;;;;;;;5049094;28;20049;-61
2022/08/25 01:29:26;;;;;;;9.03;4.93;;;;;;;;;;5047822;28;20060;-61
2022/08/25 01:31:56;;;;;;;5.47;4.13;;;;;;;;;;5048680;28;20152;-61
2022/08/25 01:34:23;;;;;;;7.07;4.43;;;;;;;;;;5048981;28;20049;-61
2022/08/25 01:36:49;;;;;;;7.70;4.17;;;;;;;;;;5048038;28;20463;-61
2022/08/25 01:39:16;;;;;;;5.67;4.07;;;;;;;;;;5048419;28;20045;-61
2022/08/25 01:41:49;;;;;;;8.73;3.57;;;;;;;;;;5048093;28;20052;-61
2022/08/25 01:44:15;;;;;;;6.78;4.10;;;;;;;;;;5048653;28;20067;-61
2022/08/25 01:46:41;;;;;;;5.40;3.30;;;;;;;;;;5048124;28;20049;-61
2022/08/25 01:49:07;;;;;;;9.73;4.40;;;;;;;;;;5048152;28;20598;-61
2022/08/25 01:51:37;;;;;;;6.23;4.20;;;;;;;;;;5047685;28;20561;-61
2022/08/25 01:54:03;;;;;;;7.90;4.00;;;;;;;;;;5047704;28;20076;-61
2022/08/25 01:56:30;;;;;;;7.70;3.40;;;;;;;;;;5047118;28;20142;-61
2022/08/25 01:58:58;;;;;;;7.27;4.03;;;;;;;;;;5048477;28;20222;-61
2022/08/25 02:01:25;;;;;;;7.13;3.70;;;;;;;;;;5048420;28;20498;-61
2022/08/25 02:03:52;;;;;;;7.47;3.77;;;;;;;;;;5047566;28;20047;-61
2022/08/25 02:06:23;;;;;;;8.73;3.57;;;;;;;;;;5047786;28;20063;-62
2022/08/25 02:08:50;;;;;;;6.13;3.50;;;;;;;;;;5048567;28;20486;-61
2022/08/25 02:11:16;;;;;;;8.23;3.47;;;;;;;;;;5047230;28;20040;-61
2022/08/25 02:13:42;;;;;;;9.77;3.70;;;;;;;;;;5047315;28;20053;-61
2022/08/25 02:16:09;;;;;;;5.90;3.80;;;;;;;;;;5047577;28;20494;-61
2022/08/25 02:18:36;;;;;;;7.07;3.17;;;;;;;;;;5047894;28;20045;-61
2022/08/25 02:21:02;;;;;;;9.43;3.07;;;;;;;;;;5047343;28;20072;-62
2022/08/25 02:23:28;;;;;;;5.27;3.77;;;;;;;;;;5047893;28;20128;-61
2022/08/25 02:25:56;;;;;;;7.20;3.33;;;;;;;;;;5047286;28;20049;-61
2022/08/25 02:28:22;;;;;;;6.77;3.30;;;;;;;;;;5046796;28;20414;-61
2022/08/25 02:30:48;;;;;;;8.43;4.30;;;;;;;;;;5047221;28;20053;-62
2022/08/25 02:33:14;;;;;;;6.70;2.60;;;;;;;;;;5047857;28;20063;-61
2022/08/25 02:35:41;;;;;;;6.50;2.97;;;;;;;;;;5047099;28;20139;-61
2022/08/25 02:38:07;;;;;;;9.13;2.63;;;;;;;;;;5046910;28;20051;-61
2022/08/25 02:40:33;;;;;;;5.97;3.00;;;;;;;;;;5047302;28;20697;-61
2022/08/25 02:42:59;;;;;;;7.03;2.87;;;;;;;;;;5047397;28;20045;-62
2022/08/25 02:45:25;;;;;;;5.20;2.83;;;;;;;;;;5047926;28;20458;-61
2022/08/25 02:47:51;;;;;;;8.47;2.83;;;;;;;;;;5047681;28;20123;-61
2022/08/25 02:50:17;;;;;;;9.43;2.83;;;;;;;;;;5046583;28;20052;-62
2022/08/25 02:52:44;;;;;;;12.63;3.37;;;;;;;;;;5047480;28;20049;-61
2022/08/25 02:55:12;;;;;;;6.77;2.67;;;;;;;;;;5047005;28;20055;-61
2022/08/25 02:57:38;;;;;;;5.80;2.83;;;;;;;;;;5047210;28;20048;-62
2022/08/25 03:00:05;;;;;;;4.57;2.77;;;;;;;;;;5046833;28;20119;-61
2022/08/25 03:02:31;;;;;;;5.20;2.37;;;;;;;;;;5046811;28;20084;-61
2022/08/25 03:04:57;;;;;;;5.77;2.20;;;;;;;;;;5047791;28;20080;-61
2022/08/25 03:07:23;;;;;;;3.47;2.53;;;;;;;;;;5047021;28;20041;-61
2022/08/25 03:09:49;;;;;;;9.07;3.03;;;;;;;;;;5046900;28;20470;-61
2022/08/25 03:12:16;;;;;;;5.97;2.63;;;;;;;;;;5046473;28;20163;-61
2022/08/25 03:14:42;;;;;;;4.60;2.53;;;;;;;;;;5047234;28;20278;-62
2022/08/25 03:17:08;;;;;;;5.77;2.90;;;;;;;;;;5047185;28;20584;-61
2022/08/25 03:19:34;;;;;;;4.80;2.80;;;;;;;;;;5047046;28;20056;-61
2022/08/25 03:22:01;;;;;;;6.33;2.80;;;;;;;;;;5046639;28;20041;-61
2022/08/25 03:24:27;;;;;;;8.00;3.00;;;;;;;;;;5046790;28;20045;-61
2022/08/25 03:26:54;;;;;;;7.73;2.80;;;;;;;;;;5046788;28;20144;-61
2022/08/25 03:29:24;;;;;;;6.23;3.07;;;;;;;;;;5050555;28;20264;-61
2022/08/25 03:31:51;;;;;;;4.90;2.80;;;;;;;;;;5050875;28;20057;-61
2022/08/25 03:34:18;;;;;;;12.83;4.07;;;;;;;;;;5050704;28;20047;-61
2022/08/25 03:36:45;;;;;;;6.13;2.93;;;;;;;;;;5050425;28;20080;-61
2022/08/25 03:39:12;;;;;;;5.73;2.60;;;;;;;;;;5050237;28;20128;-61
2022/08/25 03:41:38;;;;;;;10.67;2.50;;;;;;;;;;5050507;28;20068;-61
2022/08/25 03:44:05;;;;;;;8.77;3.07;;;;;;;;;;5050819;28;20465;-61
2022/08/25 03:46:33;;;;;;;6.27;3.37;;;;;;;;;;5050223;28;20454;-61
2022/08/25 03:49:00;;;;;;;8.27;3.60;;;;;;;;;;5050445;28;20048;-61
2022/08/25 03:51:31;;;;;;;9.03;3.47;;;;;;;;;;5049628;28;20045;-61
2022/08/25 03:53:58;;;;;;;9.30;3.53;;;;;;;;;;5050621;28;20048;-61
2022/08/25 03:56:26;;;;;;;6.73;3.90;;;;;;;;;;5050067;28;20511;-61
2022/08/25 03:58:52;;;;;;;6.17;3.67;;;;;;;;;;5050333;28;20138;-61
2022/08/25 04:01:18;;;;;;;8.07;3.90;;;;;;;;;;5050166;28;20085;-62
2022/08/25 04:03:45;;;;;;;7.07;3.97;;;;;;;;;;5050164;28;20049;-61
2022/08/25 04:06:11;;;;;;;13.07;4.23;;;;;;;;;;5049868;28;20501;-61
2022/08/25 04:08:37;;;;;;;7.50;4.33;;;;;;;;;;5050220;28;20040;-61
2022/08/25 04:11:11;;;;;;;7.93;4.53;;;;;;;;;;5050278;28;20048;-61
2022/08/25 04:13:38;;;;;;;6.83;3.87;;;;;;;;;;5049280;28;20045;-61
2022/08/25 04:16:10;;;;;;;6.27;3.70;;;;;;;;;;5049975;28;20079;-61
2022/08/25 04:18:36;;;;;;;6.57;4.18;;;;;;;;;;5050238;28;20094;-61
2022/08/25 04:21:04;;;;;;;11.60;4.20;;;;;;;;;;5049831;28;20079;-61
2022/08/25 04:23:30;;;;;;;5.47;4.20;;;;;;;;;;5049770;28;20041;-62
2022/08/25 04:25:56;;;;;;;7.80;4.10;;;;;;;;;;5049100;28;20045;-62
2022/08/25 04:28:23;;;;;;;7.30;3.83;;;;;;;;;;5049543;28;20049;-61
2022/08/25 04:30:49;;;;;;;7.07;3.57;;;;;;;;;;5049845;28;20061;-62
2022/08/25 04:33:15;;;;;;;8.50;3.63;;;;;;;;;;5050113;28;20049;-62
2022/08/25 04:35:46;;;;;;;13.20;4.07;;;;;;;;;;5049387;28;20052;-61
2022/08/25 04:38:12;;;;;;;11.23;4.37;;;;;;;;;;5049088;28;20041;-61
2022/08/25 04:40:38;;;;;;;7.93;4.23;;;;;;;;;;5048723;28;20044;-61
2022/08/25 04:43:04;;;;;;;8.27;4.20;;;;;;;;;;5049079;28;20160;-61
2022/08/25 04:45:30;;;;;;;7.60;5.03;;;;;;;;;;5049637;28;20400;-61
2022/08/25 04:47:59;;;;;;;6.43;4.37;;;;;;;;;;5049447;28;20076;-61
2022/08/25 04:50:25;;;;;;;13.03;4.60;;;;;;;;;;5048432;28;20370;-61
2022/08/25 04:52:51;;;;;;;10.37;4.50;;;;;;;;;;5049748;28;20041;-61
2022/08/25 04:55:18;;;;;;;8.30;4.80;;;;;;;;;;5049420;28;20045;-61
2022/08/25 04:57:44;;;;;;;7.10;4.97;;;;;;;;;;5049081;28;20036;-61
2022/08/25 05:00:10;;;;;;;6.87;4.90;;;;;;;;;;5049308;28;20047;-61
2022/08/25 05:02:36;;;;;;;6.53;4.97;;;;;;;;;;5049233;28;20462;-61
2022/08/25 05:05:03;;;;;;;11.37;4.23;;;;;;;;;;5048646;28;20076;-61
2022/08/25 05:07:29;;;;;;;5.67;4.03;;;;;;;;;;5048848;28;20571;-61
2022/08/25 05:09:55;;;;;;;6.00;4.20;;;;;;;;;;5048590;28;20430;-62
2022/08/25 05:12:21;;;;;;;5.73;4.20;;;;;;;;;;5048795;28;20040;-61
2022/08/25 05:14:47;;;;;;;6.80;4.00;;;;;;;;;;5047823;28;20410;-61
2022/08/25 05:17:13;;;;;;;8.47;4.30;;;;;;;;;;5048191;28;20119;-61
2022/08/25 05:19:39;;;;;;;8.63;3.97;;;;;;;;;;5048798;28;20056;-61
2022/08/25 05:22:05;;;;;;;10.37;4.40;;;;;;;;;;5048629;28;20048;-61
2022/08/25 05:24:31;;;;;;;6.93;3.87;;;;;;;;;;5048069;28;20036;-61
2022/08/25 05:26:57;;;;;;;5.00;3.13;;;;;;;;;;5048369;28;20394;-61
2022/08/25 05:29:24;;;;;;;11.30;4.30;;;;;;;;;;5048486;28;20059;-61
2022/08/25 05:31:50;;;;;;;7.10;4.00;;;;;;;;;;5047905;28;20056;-61
2022/08/25 05:34:17;;;;;;;8.53;3.77;;;;;;;;;;5048473;28;20465;-61
2022/08/25 05:36:43;;;;;;;5.40;3.60;;;;;;;;;;5048273;28;20099;-62
2022/08/25 05:39:10;;;;;;;5.73;3.70;;;;;;;;;;5047706;28;20131;-61
2022/08/25 05:41:36;;;;;;;8.37;3.23;;;;;;;;;;5048031;28;20502;-61
2022/08/25 05:44:02;;;;;;;10.40;3.67;;;;;;;;;;5048701;28;20094;-61
2022/08/25 05:46:28;;;;;;;9.80;4.40;;;;;;;;;;5047421;28;20053;-62
2022/08/25 05:48:54;;;;;;;6.87;3.83;;;;;;;;;;5048123;28;20118;-62
2022/08/25 05:51:20;;;;;;;6.40;3.70;;;;;;;;;;5047184;28;20091;-61
2022/08/25 05:53:48;;;;;;;7.00;3.97;;;;;;;;;;5048058;28;20510;-61
2022/08/25 05:56:14;;;;;;;7.13;3.90;;;;;;;;;;5047602;28;20249;-61
2022/08/25 05:58:41;;;;;;;7.33;3.60;;;;;;;;;;5048012;28;20052;-61
2022/08/25 06:03:54;;;;;;;8.03;3.50;;;;;;;;;;5047795;28;20048;-61
2022/08/25 06:06:25;;;;;;;7.70;4.17;;;;;;;;;;5047701;28;20072;-61
2022/08/25 06:08:51;;;;;;;7.13;3.27;;;;;;;;;;5047097;28;20465;-61
2022/08/25 06:11:17;;;;;;;6.30;3.57;;;;;;;;;;5047928;28;20470;-62
2022/08/25 06:13:44;;;;;;;8.50;4.27;;;;;;;;;;5048005;28;20149;-61
2022/08/25 06:16:10;;;;;;;8.00;3.13;;;;;;;;;;5027906;28;20415;-61
2022/08/25 06:18:36;;;;;;;5.40;3.10;;;;;;;;;;5027466;28;20103;-61
2022/08/25 06:21:12;;;;;;;8.13;3.30;;;;;;;;;;5027920;28;20487;-61
2022/08/25 06:23:38;;;;;;;6.50;3.23;;;;;;;;;;5027980;28;20042;-61
2022/08/25 06:26:04;;;;;;;11.43;3.67;;;;;;;;;;5027407;28;20528;-61
2022/08/25 06:28:30;;;;;;;7.07;3.60;;;;;;;;;;5027851;28;20045;-62
2022/08/25 06:31:00;;;;;;;10.73;3.67;;;;;;;;;;5046864;28;20059;-61
2022/08/25 06:33:26;;;;;;;4.67;3.27;;;;;;;;;;5047514;28;20040;-61
2022/08/25 06:35:54;;;;;;;7.87;2.90;;;;;;;;;;5047809;28;20475;-61
2022/08/25 06:38:21;;;;;;;9.70;3.93;;;;;;;;;;5046917;28;20056;-61
2022/08/25 06:40:47;;;;;;;10.23;3.63;;;;;;;;;;5046857;28;20487;-61
2022/08/25 06:43:14;;;;;;;5.57;3.43;;;;;;;;;;5046922;28;20384;-61
2022/08/25 06:45:42;;;;;;;8.97;3.40;;;;;;;;;;5047148;28;20103;-61
2022/08/25 06:48:09;;;;;;;6.50;2.40;;;;;;;;;;5047193;28;20048;-62
2022/08/25 06:50:38;;;;;;;9.67;3.40;;;;;;;;;;5046927;28;20041;-61
2022/08/25 06:53:05;;;;;;;17.53;3.60;;;;;;;;;;5046677;28;20533;-61
2022/08/25 06:55:31;;;;;;;6.50;2.80;;;;;;;;;;5047206;28;20041;-61
2022/08/25 06:57:57;;;;;;;4.50;3.00;;;;;;;;;;5046992;28;20080;-62
2022/08/25 07:00:23;;;;;;;7.53;3.07;;;;;;;;;;5047416;28;20080;-61
2022/08/25 07:02:49;;;;;;;9.07;3.20;;;;;;;;;;5048953;28;20037;-61
2022/08/25 07:05:15;;;;;;;4.47;2.80;;;;;;;;;;5050876;28;20122;-61
2022/08/25 07:07:45;;;;;;;5.97;2.97;;;;;;;;;;5051014;28;20052;-61
2022/08/25 07:10:11;;;;;;;8.73;3.03;;;;;;;;;;5049772;28;20123;-61
2022/08/25 07:12:37;;;;;;;7.03;3.07;;;;;;;;;;5050534;28;20092;-61
2022/08/25 07:15:04;;;;;;;8.87;3.00;;;;;;;;;;5051216;28;20140;-61
2022/08/25 07:17:30;;;;;;;5.80;2.80;;;;;;;;;;5050336;28;20406;-61
2022/08/25 07:19:56;;;;;;;6.33;3.27;;;;;;;;;;5050612;28;20060;-61
2022/08/25 07:22:22;;;;;;;7.13;3.40;;;;;;;;;;5050543;28;20041;-61
2022/08/25 07:24:48;;;;;;;12.80;3.27;;;;;;;;;;5050482;28;21044;-61
2022/08/25 07:27:14;;;;;;;7.23;3.33;;;;;;;;;;5050988;28;20048;-61
2022/08/25 07:29:40;;;;;;;9.30;3.27;;;;;;;;;;5050706;28;20067;-61
2022/08/25 07:32:07;;;;;;;7.90;3.30;;;;;;;;;;5050665;28;20045;-61
2022/08/25 07:37:18;;;;;;;7.97;3.00;;;;;;;;;;5030620;28;20061;-62
2022/08/25 07:39:45;;;;;;;12.37;3.57;;;;;;;;;;5030891;28;20139;-62
2022/08/25 07:42:12;;;;;;;5.17;2.60;;;;;;;;;;5030253;28;20527;-62
2022/08/25 07:44:38;;;;;;;7.43;3.17;;;;;;;;;;5030297;28;20145;-62
2022/08/25 07:47:04;;;;;;;6.80;2.67;;;;;;;;;;5030310;28;20052;-62
2022/08/25 07:49:31;;;;;;;7.27;3.07;;;;;;;;;;5032881;28;20064;-62
2022/08/25 07:51:57;;;;;;;5.47;3.27;;;;;;;;;;5050208;28;20421;-62
2022/08/25 07:54:26;;;;;;;5.37;2.83;;;;;;;;;;5050717;28;20044;-60
2022/08/25 07:56:52;;;;;;;7.47;3.37;;;;;;;;;;5049940;28;20048;-60
2022/08/25 07:59:18;;;;;;;7.07;3.10;;;;;;;;;;5050466;28;20052;-61
2022/08/25 08:01:44;;;;;;;5.77;3.13;;;;;;;;;;5050139;28;20183;-61
2022/08/25 08:04:10;;;;;;;8.00;3.27;;;;;;;;;;5049243;28;20132;-61
2022/08/25 08:06:36;;;;;;;7.33;2.73;;;;;;;;;;5050890;28;20060;-60
2022/08/25 08:09:03;;;;;;;6.47;2.90;;;;;;;;;;5050735;28;20064;-61
2022/08/25 08:11:33;;;;;;;6.97;3.33;;;;;;;;;;5050038;28;20418;-61
2022/08/25 08:13:59;;;;;;;6.30;2.77;;;;;;;;;;5049975;28;20441;-61
2022/08/25 08:16:26;;;;;;;7.30;2.43;;;;;;;;;;5050769;28;20079;-62
2022/08/25 08:18:52;;;;;;;5.37;2.40;;;;;;;;;;5050587;28;20052;-61
2022/08/25 08:21:18;;;;;;;5.33;2.43;;;;;;;;;;5050702;28;20382;-62
2022/08/25 08:23:44;;;;;;;6.43;2.80;;;;;;;;;;5050319;28;20045;-62
2022/08/25 08:26:10;;;;;;;7.28;2.97;;;;;;;;;;5049667;28;20091;-61
2022/08/25 08:28:36;;;;;;;5.32;2.25;;;;;;;;;;5050000;28;20045;-62
2022/08/25 08:31:03;;;;;;;5.47;2.58;;;;;;;;;;5049332;28;20140;-62
2022/08/25 08:33:29;;;;;;;7.43;2.35;;;;;;;;;;5050236;28;20041;-62
2022/08/25 08:36:00;;;;;;;5.60;2.55;;;;;;;;;;5050338;28;20063;-61
2022/08/25 08:38:26;;;;;;;4.55;2.67;;;;;;;;;;5049263;28;20158;-62
2022/08/25 08:44:07;;;;;;;4.72;1.98;;;;;;;;;;5050353;28;20045;-62
2022/08/25 08:46:46;;;;;;;8.70;2.30;;;;;;;;;;5050567;28;21288;-61
2022/08/25 08:49:26;;;;;;;6.60;2.80;;;;;;;;;;5049063;28;20037;-62
2022/08/25 08:51:54;;;;;;;8.70;2.50;;;;;;;;;;5029828;28;20041;-62
2022/08/25 08:54:24;;;;;;;4.40;2.40;;;;;;;;;;5029940;28;20103;-62
2022/08/25 08:56:54;;;;;;;8.20;2.25;;;;;;;;;;5029773;28;20085;-62
2022/08/25 08:59:24;;;;;;;5.05;2.30;;;;;;;;;;5029933;28;20100;-62
2022/08/25 09:01:56;;;;;;;5.40;2.10;;;;;;;;;;5029875;28;20050;-62
2022/08/25 09:04:42;;;;;;;5.13;2.10;;;;;;;;;;5034818;28;20431;-62
2022/08/25 09:07:14;;;;;;;7.90;2.10;;;;;;;;;;5049204;28;20052;-62
2022/08/25 09:09:40;;;;;;;5.05;2.20;;;;;;;;;;5049675;28;20511;-62
2022/08/25 09:12:18;;;;;;;5.53;2.63;;;;;;;;;;5049091;28;20056;-61
2022/08/25 09:15:03;;;;;;;7.28;2.10;;;;;;;;;;5048808;28;20051;-62
2022/08/25 09:17:33;;;;;;;7.38;2.00;;;;;;;;;;5049334;28;20052;-62
2022/08/25 09:20:11;;;;;;;5.88;2.00;;;;;;;;;;5049159;28;20044;-62
2022/08/25 09:22:50;;;;;;;5.68;2.50;;;;;;;;;;5049001;28;20090;-62
2022/08/25 09:25:29;;;;;;;9.20;2.13;;;;;;;;;;5048339;28;20056;-62
2022/08/25 09:28:06;;;;;;;6.45;2.00;;;;;;;;;;5049020;28;20041;-62
2022/08/25 09:30:42;;;;;;;6.25;2.47;;;;;;;;;;5048789;28;20053;-62
2022/08/25 09:33:09;;;;;;;4.10;2.03;;;;;;;;;;5048291;28;20040;-62
2022/08/25 09:35:39;;;;;;;6.90;2.20;;;;;;;;;;5048551;28;20049;-63
2022/08/25 09:38:06;;;;;;;4.05;2.20;;;;;;;;;;5048790;28;20048;-62
2022/08/25 09:40:34;;;;;;;6.65;2.22;;;;;;;;;;5048375;28;20053;-62
2022/08/25 09:43:02;;;;;;;5.72;2.67;;;;;;;;;;5047653;28;20080;-62
2022/08/25 09:45:40;;;;;;;5.90;2.55;;;;;;;;;;5048868;28;20611;-62
2022/08/25 09:48:26;;;;;;;6.18;2.13;;;;;;;;;;5048345;28;20055;-62
2022/08/25 09:50:53;;;;;;;5.65;2.55;;;;;;;;;;5048227;28;20068;-62
2022/08/25 09:53:20;;;;;;;5.25;2.10;;;;;;;;;;5048229;28;20047;-62
2022/08/25 09:55:54;;;;;;;3.10;2.10;;;;;;;;;;5048439;28;20135;-62
2022/08/25 09:58:21;;;;;;;5.07;2.30;;;;;;;;;;5048677;28;20095;-62
2022/08/25 10:01:02;;;;;;;5.20;2.20;;;;;;;;;;5048270;28;20045;-62
2022/08/25 10:03:28;;;;;;;5.60;2.65;;;;;;;;;;5048302;28;20152;-62
2022/08/25 10:05:57;;;;;;;7.40;2.63;;;;;;;;;;5048002;28;20561;-62
2022/08/25 10:08:31;;;;;;;6.45;2.60;;;;;;;;;;5048649;28;20048;-62
2022/08/25 10:10:59;;;;;;;4.82;2.42;;;;;;;;;;5048223;28;20048;-62
2022/08/25 10:13:34;;;;;;;5.18;2.22;;;;;;;;;;5047870;28;20075;-62
2022/08/25 10:16:23;;;;;;;4.68;2.40;;;;;;;;;;5047608;28;20172;-62
2022/08/25 10:19:01;;;;;;;4.55;2.38;;;;;;;;;;5047791;28;20052;-62
2022/08/25 10:21:27;;;;;;;4.32;1.90;;;;;;;;;;5047876;28;20044;-62
2022/08/25 10:23:55;;;;;;;4.55;2.17;;;;;;;;;;5047538;28;20056;-62
2022/08/25 10:26:21;;;;;;;8.32;2.35;;;;;;;;;;5047499;28;20049;-62
2022/08/25 10:28:47;;;;;;;4.68;2.15;;;;;;;;;;5047640;28;20130;-62
2022/08/25 10:31:19;;;;;;;4.05;2.28;;;;;;;;;;5047297;28;20068;-62
2022/08/25 10:33:46;;;;;;;4.30;2.17;;;;;;;;;;5047749;28;20151;-62
2022/08/25 10:36:22;;;;;;;4.75;2.15;;;;;;;;;;5047922;28;20125;-62
2022/08/25 10:38:57;;;;;;;5.65;2.58;;;;;;;;;;5047970;28;20132;-62
2022/08/25 10:41:29;;;;;;;4.20;2.00;;;;;;;;;;5047861;28;20045;-62
2022/08/25 10:45:41;;;;;;;5.40;2.20;;;;;;;;;;5047767;28;20102;-62
2022/08/25 10:46:59;;;;;;;5.43;2.40;;;;;;;;;;5047902;28;20052;-62
2022/08/25 10:49:33;;;;;;;6.07;2.03;;;;;;;;;;5047691;28;20041;-61
2022/08/25 10:52:04;;;;;;;3.90;2.08;;;;;;;;;;5047901;28;20102;-62
2022/08/25 10:54:30;;;;;;;4.53;2.50;;;;;;;;;;5047745;28;20059;-61
2022/08/25 10:57:16;;;;;;;4.93;2.13;;;;;;;;;;5046857;28;20284;-62
2022/08/25 10:59:56;;;;;;;3.35;2.35;;;;;;;;;;5047419;28;20041;-62
2022/08/25 11:02:34;;;;;;;5.43;2.00;;;;;;;;;;5047736;28;20045;-62
2022/08/25 11:05:13;;;;;;;6.82;2.42;;;;;;;;;;5047456;28;20541;-62
2022/08/25 11:07:42;;;;;;;7.15;2.28;;;;;;;;;;5047613;28;20053;-62
2022/08/25 11:10:11;;;;;;;3.55;2.15;;;;;;;;;;5047691;28;20485;-61
2022/08/25 11:12:45;;;;;;;3.38;1.65;;;;;;;;;;5047335;28;20048;-61
2022/08/25 11:15:11;;;;;;;6.68;1.90;;;;;;;;;;5047459;28;20052;-61
2022/08/25 11:17:37;;;;;;;4.75;2.10;;;;;;;;;;5046990;28;20064;-62
2022/08/25 11:20:06;;;;;;;4.38;1.98;;;;;;;;;;5047433;28;20048;-62
2022/08/25 11:22:47;;;;;;;5.65;2.00;;;;;;;;;;5047391;28;20048;-61
2022/08/25 11:25:17;;;;;;;4.50;1.88;;;;;;;;;;5047391;28;20138;-62
2022/08/25 11:27:52;;;;;;;3.35;1.95;;;;;;;;;;5047265;28;20049;-62
2022/08/25 11:30:18;;;;;;;3.50;1.80;;;;;;;;;;5046525;28;20060;-62
2022/08/25 11:32:46;;;;;;;3.80;2.03;;;;;;;;;;5047376;28;20099;-62
2022/08/25 11:35:13;;;;;;;3.67;1.85;;;;;;;;;;5047221;28;20049;-62
2022/08/25 11:37:54;;;;;;;5.15;2.00;;;;;;;;;;5047416;28;20110;-62
2022/08/25 11:40:35;;;;;;;4.80;1.90;;;;;;;;;;5046321;28;20091;-62
2022/08/25 11:43:21;;;;;;;3.83;2.00;;;;;;;;;;5047198;28;20132;-61
2022/08/25 11:45:57;;;;;;;4.18;1.88;;;;;;;;;;5047603;28;20051;-61
2022/08/25 11:48:43;;;;;;;5.65;1.88;;;;;;;;;;5048207;28;20045;-62
2022/08/25 11:51:11;;;;;;;3.67;1.92;;;;;;;;;;5050187;28;20044;-62
2022/08/25 11:53:38;;;;;;;9.82;2.08;;;;;;;;;;5050305;28;20049;-62
2022/08/25 11:56:07;;;;;;;6.25;1.90;;;;;;;;;;5050645;28;20045;-62
2022/08/25 11:58:37;;;;;;;4.22;1.73;;;;;;;;;;5050703;28;20124;-62
2022/08/25 12:01:04;;;;;;;2.50;1.73;;;;;;;;;;5050391;28;20049;-62
2022/08/25 12:03:36;;;;;;;4.70;1.90;;;;;;;;;;5050205;28;20041;-62
2022/08/25 12:06:14;;;;;;;4.00;1.73;;;;;;;;;;5050666;28;20094;-62
2022/08/25 12:08:49;;;;;;;3.83;1.42;;;;;;;;;;5050527;28;20528;-62
2022/08/25 12:11:34;;;;;;;3.42;1.60;;;;;;;;;;5050587;28;20049;-62
2022/08/25 12:14:19;;;;;;;3.65;1.90;;;;;;;;;;5049859;28;20094;-62
2022/08/25 12:16:54;;;;;;;3.53;1.70;;;;;;;;;;5050632;28;20053;-62
2022/08/25 12:19:28;;;;;;;2.97;1.42;;;;;;;;;;5050055;28;20605;-62
2022/08/25 12:22:18;;;;;;;5.10;1.95;;;;;;;;;;5050599;28;20053;-62
2022/08/25 12:24:44;;;;;;;4.47;1.60;;;;;;;;;;5050155;28;20052;-62
2022/08/25 12:27:26;;;;;;;2.72;1.45;;;;;;;;;;5049649;28;20084;-62
2022/08/25 12:30:00;;;;;;;3.80;1.50;;;;;;;;;;5050095;28;20049;-61
2022/08/25 12:32:29;;;;;;;4.28;1.23;;;;;;;;;;5049406;28;20080;-62
2022/08/25 12:35:17;;;;;;;4.10;1.52;;;;;;;;;;5050348;28;20041;-62
2022/08/25 12:37:53;;;;;;;3.97;1.52;;;;;;;;;;5050109;28;20041;-62
2022/08/25 12:40:30;;;;;;;2.78;1.10;;;;;;;;;;5049580;28;20081;-62
2022/08/25 12:43:10;;;;;;;3.92;1.70;;;;;;;;;;5050265;28;20499;-62
2022/08/25 12:45:41;;;;;;;3.22;1.40;;;;;;;;;;5050131;28;20045;-62
2022/08/25 12:48:33;;;;;;;4.40;1.58;;;;;;;;;;5029805;28;20507;-62
2022/08/25 12:50:59;;;;;;;3.70;1.35;;;;;;;;;;5029986;28;20068;-62
2022/08/25 12:53:34;;;;;;;3.20;1.40;;;;;;;;;;5041279;28;20044;-62
2022/08/25 12:56:03;;;;;;;3.75;1.30;;;;;;;;;;5049589;28;20363;-62
2022/08/25 12:58:34;;;;;;;2.22;1.40;;;;;;;;;;5049806;28;20187;-62
2022/08/25 13:01:26;;;;;;;2.17;1.30;;;;;;;;;;5048835;28;20103;-62
2022/08/25 13:03:52;;;;;;;;;;;;;;;;;;5049938;28;20491;-62
2022/08/25 13:06:26;;;;;;;3.15;1.88;;;;;;;;;;5048833;28;19925;-62
2022/08/25 13:08:52;;;;;;;2.38;1.67;;;;;;;;;;5049448;28;20055;-62
2022/08/25 13:11:30;;;;;;;2.75;1.60;;;;;;;;;;5049286;28;20045;-62
2022/08/25 13:14:20;;;;;;;4.15;1.63;;;;;;;;;;5048683;28;20073;-62
2022/08/25 13:16:53;;;;;;;2.70;1.65;;;;;;;;;;5048721;28;20060;-62
2022/08/25 13:19:20;;;;;;;2.15;1.20;;;;;;;;;;5049217;28;20045;-62
2022/08/25 13:21:47;;;;;;;2.40;1.40;;;;;;;;;;5048859;28;20040;-62
2022/08/25 13:24:21;;;;;;;2.88;1.65;;;;;;;;;;5049288;28;20435;-62
2022/08/25 13:26:49;;;;;;;2.35;1.45;;;;;;;;;;5048795;28;20183;-62
2022/08/25 13:29:18;;;;;;;3.53;1.67;;;;;;;;;;5048770;28;20056;-62
2022/08/25 13:32:00;;;;;;;3.00;1.50;;;;;;;;;;5049228;28;20144;-62
2022/08/25 13:34:25;;;;;;;;;;;;;;;;;;5048937;28;20124;-62
2022/08/25 13:39:37;;;;;;;5.22;1.50;;;;;;;;;;5049335;28;20081;-62
2022/08/25 13:42:06;;;;;;;2.45;1.50;;;;;;;;;;5048998;28;20079;-62
2022/08/25 13:44:35;;;;;;;4.30;2.05;;;;;;;;;;5048521;28;20083;-62
2022/08/25 13:47:13;;;;;;;2.80;1.35;;;;;;;;;;5048425;28;20037;-62
2022/08/25 13:49:40;;;;;;;3.97;1.60;;;;;;;;;;5048669;28;20048;-62
2022/08/25 13:52:06;;;;;;;4.20;1.75;;;;;;;;;;5048103;28;20556;-62
2022/08/25 13:54:38;;;;;;;4.63;2.05;;;;;;;;;;5049001;28;20495;-62
2022/08/25 13:57:13;;;;;;;4.10;1.83;;;;;;;;;;5048355;28;20057;-62
2022/08/25 13:59:41;;;;;;;3.35;1.52;;;;;;;;;;5048290;28;20712;-62
2022/08/25 14:02:08;;;;;;;3.45;1.55;;;;;;;;;;5048997;28;20048;-62
2022/08/25 14:04:34;;;;;;;3.83;1.75;;;;;;;;;;5048291;28;20037;-62
2022/08/25 14:07:15;;;;;;;5.63;1.88;;;;;;;;;;5048408;28;20037;-62
2022/08/25 14:09:41;;;;;;;;;;;;;;;;;;5048521;28;20050;-62
2022/08/25 14:12:07;;;;;;;4.68;1.50;;;;;;;;;;5047531;28;19927;-62
2022/08/25 14:14:34;;;;;;;3.92;1.80;;;;;;;;;;5048500;28;20056;-62
2022/08/25 14:17:08;;;;;;;5.82;2.03;;;;;;;;;;5048135;28;20051;-62
2022/08/25 14:19:35;;;;;;;6.63;1.77;;;;;;;;;;5047897;28;20132;-62
2022/08/25 14:22:01;;;;;;;6.07;1.75;;;;;;;;;;5048223;28;20048;-62
2022/08/25 14:24:30;;;;;;;2.47;1.70;;;;;;;;;;5047253;28;20568;-62
2022/08/25 14:26:56;;;;;;;3.45;1.63;;;;;;;;;;5047795;28;20063;-62
2022/08/25 14:29:22;;;;;;;3.95;2.00;;;;;;;;;;5047734;28;20408;-62
2022/08/25 14:31:51;;;;;;;4.57;2.35;;;;;;;;;;5047463;28;21138;-62
2022/08/25 14:34:24;;;;;;;4.60;1.90;;;;;;;;;;5047862;28;20412;-62
2022/08/25 14:36:51;;;;;;;4.05;2.05;;;;;;;;;;5047840;28;20041;-62
2022/08/25 14:39:17;;;;;;;3.38;1.50;;;;;;;;;;5047947;28;20045;-62
2022/08/25 14:41:45;;;;;;;4.90;2.10;;;;;;;;;;5047094;28;20060;-62
2022/08/25 14:44:11;;;;;;;3.42;1.90;;;;;;;;;;5047738;28;20101;-62
2022/08/25 14:46:40;;;;;;;3.22;1.92;;;;;;;;;;5047622;28;20124;-62
2022/08/25 14:49:07;;;;;;;6.82;2.65;;;;;;;;;;5047829;28;20088;-62
2022/08/25 14:51:34;;;;;;;3.90;1.95;;;;;;;;;;5047656;28;20091;-62
2022/08/25 14:54:02;;;;;;;4.95;2.20;;;;;;;;;;5047551;28;20053;-62
2022/08/25 14:56:28;;;;;;;6.95;2.10;;;;;;;;;;5047651;28;20045;-62
2022/08/25 14:58:54;;;;;;;5.00;2.08;;;;;;;;;;5047514;28;20045;-62
2022/08/25 15:01:21;;;;;;;3.85;1.98;;;;;;;;;;5047714;28;20549;-62
2022/08/25 15:03:49;;;;;;;5.45;2.53;;;;;;;;;;5047677;28;20566;-62
2022/08/25 15:06:16;;;;;;;4.35;2.28;;;;;;;;;;5047658;28;20080;-62